Time;durP1;ratioP1;P1;durP2;ratioP2;P2;SDS_P1;SDS_P2;PMS_P1;PMS_P2;Temp;Humidity;BMP_temperature;BMP_pressure;BME280_temperature;BME280_humidity;BME280_pressure;Samples;Min_cycle;Max_cycle;Signal;HPM_P1;HPM_P2
2023/03/02 00:01:00;;;;;;;137.77;44.90;;;;;;;;;;5045146;28;20887;-65
2023/03/02 00:03:27;;;;;;;143.80;45.00;;;;;;;;;;5053650;28;20193;-65
2023/03/02 00:05:53;;;;;;;134.00;43.73;;;;;;;;;;5056654;28;20199;-65
2023/03/02 00:08:18;;;;;;;135.43;45.53;;;;;;;;;;5053324;28;20230;-65
2023/03/02 00:10:45;;;;;;;137.13;46.50;;;;;;;;;;5050835;28;20201;-65
2023/03/02 00:13:12;;;;;;;148.97;45.97;;;;;;;;;;5060562;28;20185;-66
2023/03/02 00:15:37;;;;;;;140.40;43.87;;;;;;;;;;5057796;28;20182;-66
2023/03/02 00:18:03;;;;;;;134.17;41.67;;;;;;;;;;5056012;28;20204;-65
2023/03/02 00:20:28;;;;;;;132.97;41.73;;;;;;;;;;5052030;28;20231;-66
2023/03/02 00:22:54;;;;;;;134.80;43.20;;;;;;;;;;5065174;28;20327;-66
2023/03/02 00:25:19;;;;;;;137.50;43.33;;;;;;;;;;5069945;28;20200;-66
2023/03/02 00:27:44;;;;;;;138.80;43.63;;;;;;;;;;5052825;28;20276;-66
2023/03/02 00:30:12;;;;;;;145.23;43.37;;;;;;;;;;5058640;28;20213;-66
2023/03/02 00:32:38;;;;;;;139.30;42.50;;;;;;;;;;5055732;28;20224;-66
2023/03/02 00:35:04;;;;;;;145.77;43.13;;;;;;;;;;5064115;28;20190;-67
2023/03/02 00:37:30;;;;;;;143.47;44.57;;;;;;;;;;5054026;28;20332;-66
2023/03/02 00:39:56;;;;;;;145.70;41.80;;;;;;;;;;5050062;28;20672;-66
2023/03/02 00:42:21;;;;;;;149.13;43.40;;;;;;;;;;5063541;28;20185;-67
2023/03/02 00:44:47;;;;;;;156.87;45.50;;;;;;;;;;5050734;28;20622;-66
2023/03/02 00:47:12;;;;;;;146.77;42.57;;;;;;;;;;5066952;28;20237;-66
2023/03/02 00:49:38;;;;;;;154.67;43.40;;;;;;;;;;5056084;28;20213;-66
2023/03/02 00:52:04;;;;;;;156.50;45.93;;;;;;;;;;5049702;28;20245;-66
2023/03/02 00:54:30;;;;;;;157.27;44.33;;;;;;;;;;5035258;28;20825;-66
2023/03/02 00:56:56;;;;;;;159.70;44.33;;;;;;;;;;5050997;28;20219;-66
2023/03/02 00:59:27;;;;;;;156.17;42.83;;;;;;;;;;5059672;28;20208;-67
2023/03/02 01:01:56;;;;;;;153.57;45.03;;;;;;;;;;5059485;28;20220;-67
2023/03/02 01:04:32;;;;;;;136.90;40.67;;;;;;;;;;5054679;28;20268;-66
2023/03/02 01:07:00;;;;;;;145.50;41.40;;;;;;;;;;5076166;28;20192;-67
2023/03/02 01:09:26;;;;;;;143.87;41.23;;;;;;;;;;5050620;28;20256;-66
2023/03/02 01:11:51;;;;;;;154.60;42.47;;;;;;;;;;5055187;28;20216;-66
2023/03/02 01:14:17;;;;;;;170.53;44.07;;;;;;;;;;5053422;28;20215;-66
2023/03/02 01:16:43;;;;;;;144.67;43.13;;;;;;;;;;5056827;28;20197;-66
2023/03/02 01:19:09;;;;;;;153.10;41.60;;;;;;;;;;5054154;28;20667;-66
2023/03/02 01:21:34;;;;;;;142.43;41.77;;;;;;;;;;5054290;28;20284;-66
2023/03/02 01:24:01;;;;;;;141.90;41.00;;;;;;;;;;5048816;28;20308;-66
2023/03/02 01:26:26;;;;;;;149.57;40.63;;;;;;;;;;5052655;28;20228;-66
2023/03/02 01:28:54;;;;;;;141.30;40.80;;;;;;;;;;5057281;28;20283;-66
2023/03/02 01:31:26;;;;;;;169.97;44.60;;;;;;;;;;5054013;28;20201;-66
2023/03/02 01:33:52;;;;;;;158.00;43.07;;;;;;;;;;5055810;28;20315;-66
2023/03/02 01:36:17;;;;;;;153.20;39.70;;;;;;;;;;5053862;28;20277;-67
2023/03/02 01:38:43;;;;;;;158.63;42.13;;;;;;;;;;5061571;28;21435;-66
2023/03/02 01:41:09;;;;;;;152.30;41.10;;;;;;;;;;5052855;28;20602;-66
2023/03/02 01:43:34;;;;;;;155.03;41.60;;;;;;;;;;5048059;28;20633;-67
2023/03/02 01:46:12;;;;;;;157.33;42.43;;;;;;;;;;5052050;28;20330;-67
2023/03/02 01:48:40;;;;;;;154.03;40.53;;;;;;;;;;5056356;28;20267;-67
2023/03/02 01:51:06;;;;;;;153.60;42.87;;;;;;;;;;5053531;28;20224;-67
2023/03/02 01:53:35;;;;;;;165.30;43.40;;;;;;;;;;5048961;28;20675;-67
2023/03/02 01:56:02;;;;;;;159.47;42.70;;;;;;;;;;5049563;28;20312;-67
2023/03/02 01:58:33;;;;;;;158.77;42.90;;;;;;;;;;5051048;28;20201;-67
2023/03/02 02:00:59;;;;;;;156.90;42.17;;;;;;;;;;5048368;28;20282;-67
2023/03/02 02:03:29;;;;;;;159.90;43.00;;;;;;;;;;5058393;28;20213;-67
2023/03/02 02:06:00;;;;;;;150.10;41.60;;;;;;;;;;5048347;28;20189;-67
2023/03/02 02:08:27;;;;;;;156.77;42.30;;;;;;;;;;5047499;28;20548;-67
2023/03/02 02:10:53;;;;;;;161.80;44.03;;;;;;;;;;5050484;28;20217;-67
2023/03/02 02:13:19;;;;;;;152.97;42.27;;;;;;;;;;5051493;28;20520;-67
2023/03/02 02:15:44;;;;;;;150.50;42.77;;;;;;;;;;5048806;28;20197;-68
2023/03/02 02:18:09;;;;;;;151.57;42.77;;;;;;;;;;5053485;28;20269;-67
2023/03/02 02:20:41;;;;;;;159.17;41.90;;;;;;;;;;5053373;28;20205;-67
2023/03/02 02:23:33;;;;;;;155.53;43.20;;;;;;;;;;5061866;28;20204;-66
2023/03/02 02:26:02;;;;;;;150.87;40.07;;;;;;;;;;5053198;28;20193;-66
2023/03/02 02:28:32;;;;;;;160.63;42.70;;;;;;;;;;5057087;28;20287;-66
2023/03/02 02:31:21;;;;;;;166.63;40.87;;;;;;;;;;5052921;28;20211;-66
2023/03/02 02:33:51;;;;;;;163.10;40.10;;;;;;;;;;5063283;28;20282;-66
2023/03/02 02:36:31;;;;;;;166.50;43.83;;;;;;;;;;5054775;28;20836;-66
2023/03/02 02:39:00;;;;;;;160.83;41.13;;;;;;;;;;5060769;28;20193;-67
2023/03/02 02:41:32;;;;;;;141.80;40.57;;;;;;;;;;5043898;28;20615;-67
2023/03/02 02:43:57;;;;;;;159.83;42.67;;;;;;;;;;5060759;28;20251;-67
2023/03/02 02:46:24;;;;;;;151.50;39.80;;;;;;;;;;5056869;28;20463;-67
2023/03/02 02:48:49;;;;;;;161.93;43.03;;;;;;;;;;5058906;28;20587;-67
2023/03/02 02:51:22;;;;;;;159.53;40.43;;;;;;;;;;5048583;28;20275;-67
2023/03/02 02:54:02;;;;;;;164.30;40.77;;;;;;;;;;5062612;28;20200;-67
2023/03/02 02:56:31;;;;;;;149.00;39.70;;;;;;;;;;5050208;28;20662;-67
2023/03/02 02:59:02;;;;;;;159.00;42.77;;;;;;;;;;5060010;28;20205;-67
2023/03/02 03:01:28;;;;;;;159.77;40.30;;;;;;;;;;5048445;28;20353;-67
2023/03/02 03:03:57;;;;;;;170.17;42.37;;;;;;;;;;5055736;28;20197;-67
2023/03/02 03:06:26;;;;;;;155.27;40.77;;;;;;;;;;5049957;28;20193;-68
2023/03/02 03:08:54;;;;;;;178.67;43.43;;;;;;;;;;5055783;28;20341;-67
2023/03/02 03:11:29;;;;;;;170.33;43.40;;;;;;;;;;5061742;28;20216;-66
2023/03/02 03:14:11;;;;;;;170.93;41.77;;;;;;;;;;5051461;28;20184;-66
2023/03/02 03:16:39;;;;;;;161.97;39.90;;;;;;;;;;5051048;28;20189;-66
2023/03/02 03:19:21;;;;;;;160.17;42.17;;;;;;;;;;5056994;28;20247;-66
2023/03/02 03:21:50;;;;;;;152.93;39.73;;;;;;;;;;5053141;28;20636;-66
2023/03/02 03:24:15;;;;;;;156.60;38.97;;;;;;;;;;5055639;28;20184;-66
2023/03/02 03:26:41;;;;;;;159.60;41.30;;;;;;;;;;5047900;28;20197;-67
2023/03/02 03:29:07;;;;;;;158.10;42.33;;;;;;;;;;5060873;28;20197;-68
2023/03/02 03:31:33;;;;;;;161.03;41.67;;;;;;;;;;5053634;28;20212;-67
2023/03/02 03:33:59;;;;;;;165.03;40.30;;;;;;;;;;5059647;28;20238;-67
2023/03/02 03:36:27;;;;;;;156.03;38.50;;;;;;;;;;5062933;28;20754;-67
2023/03/02 03:38:52;;;;;;;155.07;40.33;;;;;;;;;;5057051;28;20671;-67
2023/03/02 03:41:17;;;;;;;151.73;40.37;;;;;;;;;;5047809;28;20299;-67
2023/03/02 03:43:43;;;;;;;152.80;39.93;;;;;;;;;;5065345;28;20662;-67
2023/03/02 03:46:09;;;;;;;147.53;38.13;;;;;;;;;;5061131;28;20242;-67
2023/03/02 03:48:34;;;;;;;154.23;36.80;;;;;;;;;;5063661;28;20188;-67
2023/03/02 03:50:59;;;;;;;148.43;37.50;;;;;;;;;;5044187;28;20248;-67
2023/03/02 03:53:25;;;;;;;155.20;37.50;;;;;;;;;;5052709;28;20613;-67
2023/03/02 03:55:52;;;;;;;161.90;40.37;;;;;;;;;;5063790;28;20280;-67
2023/03/02 03:58:17;;;;;;;146.27;38.17;;;;;;;;;;5052059;28;20193;-67
2023/03/02 04:00:44;;;;;;;160.30;38.60;;;;;;;;;;5065747;28;20232;-67
2023/03/02 04:03:09;;;;;;;153.80;38.67;;;;;;;;;;5068057;28;20598;-68
2023/03/02 04:05:35;;;;;;;139.27;36.57;;;;;;;;;;5064366;28;20195;-67
2023/03/02 04:08:01;;;;;;;141.13;36.83;;;;;;;;;;5063479;28;20212;-67
2023/03/02 04:10:27;;;;;;;147.47;38.73;;;;;;;;;;5064692;28;20700;-66
2023/03/02 04:12:52;;;;;;;156.03;38.93;;;;;;;;;;5062091;28;20718;-67
2023/03/02 04:15:18;;;;;;;157.67;37.87;;;;;;;;;;5056230;28;20216;-67
2023/03/02 04:17:44;;;;;;;136.50;35.97;;;;;;;;;;5059346;28;20266;-67
2023/03/02 04:20:15;;;;;;;146.17;37.70;;;;;;;;;;5051987;28;20242;-67
2023/03/02 04:22:42;;;;;;;151.20;36.87;;;;;;;;;;5052325;28;20197;-67
2023/03/02 04:25:07;;;;;;;155.10;38.20;;;;;;;;;;5051320;28;20189;-67
2023/03/02 04:27:32;;;;;;;156.33;37.13;;;;;;;;;;5055551;28;20181;-67
2023/03/02 04:29:58;;;;;;;150.40;38.10;;;;;;;;;;5064275;28;20225;-67
2023/03/02 04:32:23;;;;;;;156.67;38.40;;;;;;;;;;5052711;28;20557;-67
2023/03/02 04:34:49;;;;;;;152.37;36.03;;;;;;;;;;5053668;28;20707;-67
2023/03/02 04:37:14;;;;;;;147.53;37.43;;;;;;;;;;5051498;28;20221;-67
2023/03/02 04:39:40;;;;;;;140.60;36.47;;;;;;;;;;5063302;28;20312;-67
2023/03/02 04:42:05;;;;;;;159.70;40.43;;;;;;;;;;5061528;28;20640;-67
2023/03/02 04:44:31;;;;;;;161.07;40.00;;;;;;;;;;5066827;28;20193;-67
2023/03/02 04:46:56;;;;;;;163.00;39.60;;;;;;;;;;5056162;28;20220;-67
2023/03/02 04:49:22;;;;;;;155.53;38.90;;;;;;;;;;5054822;28;20197;-67
2023/03/02 04:51:48;;;;;;;151.37;39.57;;;;;;;;;;5054604;28;20193;-67
2023/03/02 04:54:20;;;;;;;162.73;41.03;;;;;;;;;;5054366;28;20598;-67
2023/03/02 04:56:48;;;;;;;162.03;40.97;;;;;;;;;;5065169;28;20203;-67
2023/03/02 04:59:15;;;;;;;154.50;40.60;;;;;;;;;;5068563;28;20227;-68
2023/03/02 05:01:41;;;;;;;147.17;39.10;;;;;;;;;;5061526;28;20219;-67
2023/03/02 05:04:06;;;;;;;160.87;40.63;;;;;;;;;;5057904;28;20202;-67
2023/03/02 05:06:32;;;;;;;149.30;40.50;;;;;;;;;;5068891;28;20204;-67
2023/03/02 05:08:58;;;;;;;147.17;39.13;;;;;;;;;;5069861;28;20196;-67
2023/03/02 05:11:25;;;;;;;142.77;38.93;;;;;;;;;;5055181;28;20208;-67
2023/03/02 05:13:56;;;;;;;155.57;39.07;;;;;;;;;;5068151;28;20495;-67
2023/03/02 05:16:23;;;;;;;149.87;37.50;;;;;;;;;;5055453;28;20403;-67
2023/03/02 05:18:49;;;;;;;143.13;38.90;;;;;;;;;;5053565;28;20625;-67
2023/03/02 05:21:15;;;;;;;146.20;39.97;;;;;;;;;;5060753;28;20193;-67
2023/03/02 05:23:41;;;;;;;140.80;38.90;;;;;;;;;;5049936;28;20302;-68
2023/03/02 05:26:06;;;;;;;146.13;39.70;;;;;;;;;;5051774;28;20534;-68
2023/03/02 05:28:32;;;;;;;150.00;40.63;;;;;;;;;;5057246;28;20225;-67
2023/03/02 05:30:58;;;;;;;128.40;36.13;;;;;;;;;;5053514;28;20287;-67
2023/03/02 05:33:23;;;;;;;136.60;37.10;;;;;;;;;;5052974;28;20229;-67
2023/03/02 05:35:48;;;;;;;138.63;37.40;;;;;;;;;;5052743;28;20193;-67
2023/03/02 05:38:14;;;;;;;149.20;39.13;;;;;;;;;;5054206;28;20759;-67
2023/03/02 05:40:43;;;;;;;145.57;37.97;;;;;;;;;;5058899;28;20271;-67
2023/03/02 05:43:13;;;;;;;138.17;37.13;;;;;;;;;;5052944;28;20638;-67
2023/03/02 05:45:38;;;;;;;138.00;36.80;;;;;;;;;;5051368;28;20195;-67
2023/03/02 05:48:05;;;;;;;150.43;37.43;;;;;;;;;;5057173;28;20617;-67
2023/03/02 05:50:31;;;;;;;136.67;36.93;;;;;;;;;;5049551;28;20216;-67
2023/03/02 05:52:58;;;;;;;140.33;36.93;;;;;;;;;;5066032;28;20184;-68
2023/03/02 05:55:25;;;;;;;153.70;37.93;;;;;;;;;;5063728;28;20195;-67
2023/03/02 05:57:50;;;;;;;144.40;37.03;;;;;;;;;;5061691;28;20264;-67
2023/03/02 06:00:17;;;;;;;147.17;37.50;;;;;;;;;;5058061;28;20336;-67
2023/03/02 06:02:42;;;;;;;146.57;36.90;;;;;;;;;;5055429;28;20184;-67
2023/03/02 06:05:11;;;;;;;142.27;36.73;;;;;;;;;;5057200;28;20265;-67
2023/03/02 06:07:37;;;;;;;146.33;35.83;;;;;;;;;;5075428;28;20230;-67
2023/03/02 06:10:04;;;;;;;149.43;37.97;;;;;;;;;;5067994;28;20196;-67
2023/03/02 06:12:30;;;;;;;151.57;38.37;;;;;;;;;;5057346;28;20225;-67
2023/03/02 06:14:55;;;;;;;165.17;39.83;;;;;;;;;;5064949;28;20683;-67
2023/03/02 06:17:20;;;;;;;160.77;40.27;;;;;;;;;;5051734;28;20185;-69
2023/03/02 06:19:46;;;;;;;147.53;39.73;;;;;;;;;;5061566;28;20201;-68
2023/03/02 06:22:11;;;;;;;154.93;36.23;;;;;;;;;;5058063;28;20189;-67
2023/03/02 06:24:37;;;;;;;142.97;38.43;;;;;;;;;;5054932;28;20243;-67
2023/03/02 06:27:02;;;;;;;154.57;39.20;;;;;;;;;;5054518;28;20181;-67
2023/03/02 06:29:27;;;;;;;150.43;38.23;;;;;;;;;;5054585;28;20192;-67
2023/03/02 06:31:53;;;;;;;146.40;38.17;;;;;;;;;;5051063;28;20276;-67
2023/03/02 06:34:18;;;;;;;137.60;38.07;;;;;;;;;;5050674;28;20237;-67
2023/03/02 06:36:44;;;;;;;151.07;39.93;;;;;;;;;;5055585;28;20718;-67
2023/03/02 06:39:15;;;;;;;137.03;36.50;;;;;;;;;;5055007;28;20193;-67
2023/03/02 06:41:45;;;;;;;143.13;39.70;;;;;;;;;;5056063;28;20534;-67
2023/03/02 06:44:11;;;;;;;153.13;39.60;;;;;;;;;;5052744;28;20859;-67
2023/03/02 06:46:37;;;;;;;142.83;38.50;;;;;;;;;;5056692;28;20656;-67
2023/03/02 06:49:03;;;;;;;147.17;39.07;;;;;;;;;;5055620;28;20268;-67
2023/03/02 06:51:29;;;;;;;154.73;39.47;;;;;;;;;;5059265;28;20362;-67
2023/03/02 06:53:54;;;;;;;129.87;37.27;;;;;;;;;;5048046;28;20674;-68
2023/03/02 06:56:20;;;;;;;145.63;40.93;;;;;;;;;;5051049;28;20508;-67
2023/03/02 06:58:45;;;;;;;140.33;38.23;;;;;;;;;;5047984;28;20192;-67
2023/03/02 07:01:10;;;;;;;141.70;39.70;;;;;;;;;;5049933;28;20208;-67
2023/03/02 07:03:36;;;;;;;142.73;38.37;;;;;;;;;;5058282;28;20203;-67
2023/03/02 07:06:02;;;;;;;148.47;39.77;;;;;;;;;;5051907;28;20312;-67
2023/03/02 07:08:27;;;;;;;137.73;39.23;;;;;;;;;;5076900;28;20187;-67
2023/03/02 07:10:52;;;;;;;122.83;37.20;;;;;;;;;;5054705;28;20290;-66
2023/03/02 07:13:18;;;;;;;123.50;37.97;;;;;;;;;;5056825;28;20645;-67
2023/03/02 07:15:44;;;;;;;121.67;35.87;;;;;;;;;;5066052;28;20184;-67
2023/03/02 07:18:09;;;;;;;116.13;34.87;;;;;;;;;;5064525;28;20199;-67
2023/03/02 07:20:34;;;;;;;119.23;36.50;;;;;;;;;;5046939;28;20515;-68
2023/03/02 07:23:00;;;;;;;122.60;37.30;;;;;;;;;;5049869;28;20188;-67
2023/03/02 07:25:25;;;;;;;113.93;35.47;;;;;;;;;;5050679;28;20237;-67
2023/03/02 07:27:51;;;;;;;114.80;36.13;;;;;;;;;;5066371;28;20702;-67
2023/03/02 07:30:20;;;;;;;114.47;35.37;;;;;;;;;;5059379;28;20220;-66
2023/03/02 07:32:45;;;;;;;120.40;36.03;;;;;;;;;;5053294;28;20233;-67
2023/03/02 07:35:11;;;;;;;111.03;35.60;;;;;;;;;;5060774;28;20254;-67
2023/03/02 07:37:37;;;;;;;113.10;35.30;;;;;;;;;;5054079;28;20220;-66
2023/03/02 07:40:03;;;;;;;113.13;34.83;;;;;;;;;;5053862;28;20618;-67
2023/03/02 07:42:28;;;;;;;119.53;36.03;;;;;;;;;;5062426;28;20192;-67
2023/03/02 07:44:54;;;;;;;108.47;35.47;;;;;;;;;;5055563;28;20189;-67
2023/03/02 07:47:20;;;;;;;113.20;35.97;;;;;;;;;;5049440;28;20203;-67
2023/03/02 07:49:45;;;;;;;113.97;36.20;;;;;;;;;;5055959;28;20189;-67
2023/03/02 07:52:10;;;;;;;113.03;33.80;;;;;;;;;;5056910;28;20182;-67
2023/03/02 07:54:36;;;;;;;115.27;36.60;;;;;;;;;;5052887;28;20739;-66
2023/03/02 07:57:01;;;;;;;104.43;34.27;;;;;;;;;;5050678;28;20186;-67
2023/03/02 07:59:27;;;;;;;108.17;35.00;;;;;;;;;;5054558;28;20236;-66
2023/03/02 08:01:53;;;;;;;108.03;35.33;;;;;;;;;;5049960;28;20212;-67
2023/03/02 08:04:18;;;;;;;100.07;34.57;;;;;;;;;;5050137;28;20260;-67
2023/03/02 08:06:44;;;;;;;99.83;34.63;;;;;;;;;;5049663;28;20189;-67
2023/03/02 08:09:09;;;;;;;108.10;37.60;;;;;;;;;;5051287;28;20208;-67
2023/03/02 08:11:34;;;;;;;93.63;33.60;;;;;;;;;;5048749;28;20219;-68
2023/03/02 08:14:02;;;;;;;96.80;34.63;;;;;;;;;;5054289;28;20270;-67
2023/03/02 08:16:28;;;;;;;98.60;33.67;;;;;;;;;;5053842;28;20186;-67
2023/03/02 08:18:53;;;;;;;95.23;32.97;;;;;;;;;;5049024;28;20586;-66
2023/03/02 08:21:21;;;;;;;91.67;33.27;;;;;;;;;;5050442;28;20178;-67
2023/03/02 08:23:47;;;;;;;96.13;33.87;;;;;;;;;;5046428;28;20284;-67
2023/03/02 08:26:13;;;;;;;96.00;33.17;;;;;;;;;;5047400;28;20186;-67
2023/03/02 08:28:39;;;;;;;91.10;31.40;;;;;;;;;;5050391;28;20209;-69
2023/03/02 08:31:06;;;;;;;92.30;32.87;;;;;;;;;;5054120;28;20282;-67
2023/03/02 08:33:32;;;;;;;87.23;34.57;;;;;;;;;;5048349;28;20770;-68
2023/03/02 08:36:04;;;;;;;90.13;33.80;;;;;;;;;;5048898;28;20261;-67
2023/03/02 08:38:30;;;;;;;86.77;30.87;;;;;;;;;;5055987;28;20186;-67
2023/03/02 08:40:56;;;;;;;85.67;32.47;;;;;;;;;;5052659;28;20177;-68
2023/03/02 08:43:23;;;;;;;87.87;32.80;;;;;;;;;;5057740;28;20196;-67
2023/03/02 08:45:51;;;;;;;84.97;32.23;;;;;;;;;;5051311;28;20509;-67
2023/03/02 08:48:17;;;;;;;82.00;30.90;;;;;;;;;;5050129;28;20204;-67
2023/03/02 08:50:42;;;;;;;81.93;30.50;;;;;;;;;;5061591;28;20205;-67
2023/03/02 08:53:07;;;;;;;86.53;31.83;;;;;;;;;;5061865;28;20196;-67
2023/03/02 08:55:36;;;;;;;80.53;31.23;;;;;;;;;;5054239;28;20194;-68
2023/03/02 08:58:02;;;;;;;77.07;30.23;;;;;;;;;;5053885;28;20263;-68
2023/03/02 09:00:28;;;;;;;75.90;31.07;;;;;;;;;;5051613;28;20324;-67
2023/03/02 09:02:53;;;;;;;75.77;30.67;;;;;;;;;;5051608;28;20269;-67
2023/03/02 09:05:19;;;;;;;81.90;30.87;;;;;;;;;;5055431;28;20193;-67
2023/03/02 09:07:44;;;;;;;68.57;28.03;;;;;;;;;;5056424;28;20190;-67
2023/03/02 09:10:10;;;;;;;68.33;27.90;;;;;;;;;;5053414;28;20209;-67
2023/03/02 09:12:35;;;;;;;66.77;27.47;;;;;;;;;;5054583;28;20196;-67
2023/03/02 09:15:00;;;;;;;72.70;29.57;;;;;;;;;;5050293;28;20633;-67
2023/03/02 09:17:26;;;;;;;69.57;27.47;;;;;;;;;;5051096;28;20217;-67
2023/03/02 09:19:51;;;;;;;69.20;27.63;;;;;;;;;;5054353;28;20560;-67
2023/03/02 09:22:17;;;;;;;64.43;27.63;;;;;;;;;;5051301;28;20203;-67
2023/03/02 09:24:42;;;;;;;62.07;26.10;;;;;;;;;;5050879;28;20552;-67
2023/03/02 09:27:08;;;;;;;63.73;26.50;;;;;;;;;;5053412;28;20679;-67
2023/03/02 09:29:33;;;;;;;66.10;25.50;;;;;;;;;;5059954;28;20645;-67
2023/03/02 09:31:59;;;;;;;60.50;25.13;;;;;;;;;;5051500;28;20207;-67
2023/03/02 09:34:24;;;;;;;69.73;25.90;;;;;;;;;;5047907;28;20231;-67
2023/03/02 09:36:50;;;;;;;69.53;27.53;;;;;;;;;;5050697;28;20613;-67
2023/03/02 09:39:15;;;;;;;62.47;25.27;;;;;;;;;;5050896;28;20252;-67
2023/03/02 09:41:58;;;;;;;58.73;26.07;;;;;;;;;;5053694;28;20190;-67
2023/03/02 09:44:33;;;;;;;57.27;25.20;;;;;;;;;;5056759;28;20651;-68
2023/03/02 09:47:03;;;;;;;55.90;24.50;;;;;;;;;;5054471;28;20220;-67
2023/03/02 09:49:58;;;;;;;56.17;24.77;;;;;;;;;;5056778;28;20209;-68
2023/03/02 09:52:39;;;;;;;62.70;25.27;;;;;;;;;;5051097;28;20188;-68
2023/03/02 09:55:17;;;;;;;50.10;23.77;;;;;;;;;;5062310;28;20185;-68
2023/03/02 09:57:43;;;;;;;53.43;23.10;;;;;;;;;;5057469;28;20201;-67
2023/03/02 10:00:15;;;;;;;50.10;23.10;;;;;;;;;;5062060;28;20217;-68
2023/03/02 10:03:08;;;;;;;49.47;23.30;;;;;;;;;;5053223;28;20201;-68
2023/03/02 10:05:39;;;;;;;67.40;23.00;;;;;;;;;;5053945;28;20225;-68
2023/03/02 10:08:10;;;;;;;50.20;22.10;;;;;;;;;;5053320;28;20585;-68
2023/03/02 10:10:47;;;;;;;46.80;21.80;;;;;;;;;;5056902;28;20587;-68
2023/03/02 10:13:18;;;;;;;47.70;21.37;;;;;;;;;;5052015;28;20640;-68
2023/03/02 10:16:07;;;;;;;44.47;19.93;;;;;;;;;;5048048;28;20201;-68
2023/03/02 10:18:45;;;;;;;45.17;21.07;;;;;;;;;;5049775;28;20678;-68
2023/03/02 10:21:11;;;;;;;48.83;21.53;;;;;;;;;;5048764;28;20189;-68
2023/03/02 10:23:52;;;;;;;47.23;21.53;;;;;;;;;;5049686;28;20767;-67
2023/03/02 10:26:51;;;;;;;47.47;20.83;;;;;;;;;;5049127;28;20204;-68
2023/03/02 10:29:25;;;;;;;46.17;21.57;;;;;;;;;;5054152;28;20681;-67
2023/03/02 10:32:11;;;;;;;42.33;20.70;;;;;;;;;;5048348;28;20213;-67
2023/03/02 10:34:37;;;;;;;44.43;20.17;;;;;;;;;;5059276;28;20257;-68
2023/03/02 10:37:12;;;;;;;47.47;21.77;;;;;;;;;;5049442;28;20209;-67
2023/03/02 10:39:38;;;;;;;42.03;20.30;;;;;;;;;;5055363;28;20188;-67
2023/03/02 10:42:09;;;;;;;38.53;19.47;;;;;;;;;;5051320;28;20197;-68
2023/03/02 10:44:38;;;;;;;44.17;20.70;;;;;;;;;;5048804;28;20182;-69
2023/03/02 10:47:06;;;;;;;39.20;19.30;;;;;;;;;;5053400;28;20613;-68
2023/03/02 10:49:40;;;;;;;39.77;20.03;;;;;;;;;;5053421;28;20218;-68
2023/03/02 10:52:12;;;;;;;50.93;21.70;;;;;;;;;;5048615;28;20208;-68
2023/03/02 10:54:38;;;;;;;43.73;20.47;;;;;;;;;;5061647;28;20184;-68
2023/03/02 10:57:25;;;;;;;42.73;21.47;;;;;;;;;;5054820;28;20295;-68
2023/03/02 10:59:51;;;;;;;38.20;19.80;;;;;;;;;;5050258;28;20625;-68
2023/03/02 11:02:21;;;;;;;41.90;21.07;;;;;;;;;;5048500;28;20197;-68
2023/03/02 11:04:48;;;;;;;44.20;20.53;;;;;;;;;;5049714;28;20244;-68
2023/03/02 11:07:19;;;;;;;44.17;21.70;;;;;;;;;;5049594;28;20645;-67
2023/03/02 11:10:04;;;;;;;41.33;20.17;;;;;;;;;;5051514;28;20647;-68
2023/03/02 11:12:31;;;;;;;41.93;20.97;;;;;;;;;;5058592;28;20221;-68
2023/03/02 11:15:12;;;;;;;36.50;19.07;;;;;;;;;;5061198;28;20641;-68
2023/03/02 11:17:39;;;;;;;37.50;19.80;;;;;;;;;;5066466;28;20556;-67
2023/03/02 11:20:14;;;;;;;37.37;19.27;;;;;;;;;;5050811;28;20185;-68
2023/03/02 11:22:51;;;;;;;38.27;18.67;;;;;;;;;;5049245;28;20694;-68
2023/03/02 11:25:36;;;;;;;40.30;19.97;;;;;;;;;;5058930;28;20272;-69
2023/03/02 11:28:11;;;;;;;42.00;20.60;;;;;;;;;;5049316;28;20632;-68
2023/03/02 11:30:43;;;;;;;39.03;19.27;;;;;;;;;;5052706;28;20222;-69
2023/03/02 11:33:18;;;;;;;38.63;18.67;;;;;;;;;;5055012;28;20235;-68
2023/03/02 11:35:57;;;;;;;38.13;19.17;;;;;;;;;;5058821;28;20195;-68
2023/03/02 11:38:31;;;;;;;40.47;18.37;;;;;;;;;;5057428;28;20685;-68
2023/03/02 11:41:05;;;;;;;35.67;17.13;;;;;;;;;;5058697;28;20181;-68
2023/03/02 11:43:31;;;;;;;36.33;18.17;;;;;;;;;;5051889;28;20466;-68
2023/03/02 11:46:02;;;;;;;37.87;19.10;;;;;;;;;;5048910;28;20203;-68
2023/03/02 11:48:47;;;;;;;37.27;18.33;;;;;;;;;;5049447;28;20613;-68
2023/03/02 11:51:18;;;;;;;34.30;18.13;;;;;;;;;;5050004;28;20214;-68
2023/03/02 11:54:04;;;;;;;37.07;17.63;;;;;;;;;;5060720;28;20201;-69
2023/03/02 11:56:34;;;;;;;29.20;16.40;;;;;;;;;;5054995;28;20822;-68
2023/03/02 11:59:03;;;;;;;33.57;17.07;;;;;;;;;;5046897;28;20193;-68
2023/03/02 12:01:31;;;;;;;27.80;15.07;;;;;;;;;;5049134;28;20289;-67
2023/03/02 12:04:33;;;;;;;32.10;15.97;;;;;;;;;;5050216;28;20639;-69
2023/03/02 12:07:02;;;;;;;33.13;16.37;;;;;;;;;;5055784;28;20209;-69
2023/03/02 12:09:37;;;;;;;31.27;16.03;;;;;;;;;;5056359;28;20272;-68
2023/03/02 12:12:21;;;;;;;30.77;15.27;;;;;;;;;;5063568;28;20327;-70
2023/03/02 12:14:46;;;;;;;29.57;16.00;;;;;;;;;;5051867;28;20566;-68
2023/03/02 12:17:38;;;;;;;30.43;14.87;;;;;;;;;;5050043;28;20231;-68
2023/03/02 12:20:06;;;;;;;29.93;15.27;;;;;;;;;;5052004;28;20227;-68
2023/03/02 12:22:32;;;;;;;28.60;15.43;;;;;;;;;;5051962;28;20193;-68
2023/03/02 12:25:27;;;;;;;29.97;15.17;;;;;;;;;;4354310;28;10000726;-68
2023/03/02 12:27:53;;;;;;;33.53;16.67;;;;;;;;;;5057193;28;20188;-68
2023/03/02 12:30:24;;;;;;;31.87;15.60;;;;;;;;;;5056162;28;20317;-69
2023/03/02 12:33:21;;;;;;;32.83;16.30;;;;;;;;;;5060220;28;20306;-68
2023/03/02 12:35:49;;;;;;;33.77;15.87;;;;;;;;;;5061294;28;20670;-69
2023/03/02 12:38:24;;;;;;;31.83;16.92;;;;;;;;;;5055996;28;20201;-68
2023/03/02 12:40:59;;;;;;;29.85;15.45;;;;;;;;;;5056655;28;20188;-69
2023/03/02 12:43:32;;;;;;;31.23;16.27;;;;;;;;;;5058433;28;20925;-69
2023/03/02 12:46:25;;;;;;;33.03;16.40;;;;;;;;;;5053756;28;20192;-69
2023/03/02 12:49:02;;;;;;;27.00;15.48;;;;;;;;;;5056805;28;20490;-68
2023/03/02 12:51:32;;;;;;;31.87;16.57;;;;;;;;;;5057773;28;20570;-68
2023/03/02 12:54:03;;;;;;;29.30;16.02;;;;;;;;;;5056217;28;20416;-67
2023/03/02 12:56:28;;;;;;;31.92;16.58;;;;;;;;;;5058687;28;20789;-67
2023/03/02 12:58:53;;;;;;;32.10;17.33;;;;;;;;;;5059385;28;20200;-67
2023/03/02 13:01:25;;;;;;;32.67;17.00;;;;;;;;;;5049932;28;20216;-68
2023/03/02 13:03:51;;;;;;;29.50;16.67;;;;;;;;;;5062402;28;20215;-67
2023/03/02 13:06:19;;;;;;;29.77;16.63;;;;;;;;;;5063527;28;20224;-67
2023/03/02 13:08:46;;;;;;;29.27;16.47;;;;;;;;;;5058498;28;20205;-67
2023/03/02 13:11:18;;;;;;;32.03;17.40;;;;;;;;;;5056069;28;20246;-67
2023/03/02 13:13:44;;;;;;;31.30;16.47;;;;;;;;;;5050309;28;20727;-67
2023/03/02 13:16:24;;;;;;;33.97;17.67;;;;;;;;;;5040023;28;20189;-67
2023/03/02 13:18:55;;;;;;;29.63;17.10;;;;;;;;;;5056468;28;20198;-67
2023/03/02 13:21:29;;;;;;;27.53;15.73;;;;;;;;;;5049160;28;20177;-69
2023/03/02 13:23:54;;;;;;;30.63;16.50;;;;;;;;;;5051614;28;20500;-67
2023/03/02 13:26:32;;;;;;;31.37;16.83;;;;;;;;;;5057843;28;20188;-67
2023/03/02 13:29:06;;;;;;;28.53;14.57;;;;;;;;;;5059779;28;20258;-67
2023/03/02 13:31:33;;;;;;;28.53;14.73;;;;;;;;;;5057197;28;20247;-67
2023/03/02 13:33:59;;;;;;;25.40;14.77;;;;;;;;;;5060947;28;20648;-67
2023/03/02 13:36:33;;;;;;;28.40;15.03;;;;;;;;;;5048106;28;20228;-67
2023/03/02 13:38:59;;;;;;;25.90;14.40;;;;;;;;;;5054648;28;20220;-67
2023/03/02 13:41:34;;;;;;;26.77;14.60;;;;;;;;;;5054308;28;20173;-67
2023/03/02 13:44:15;;;;;;;25.80;14.20;;;;;;;;;;5059352;28;20572;-67
2023/03/02 13:46:41;;;;;;;28.57;15.50;;;;;;;;;;5046854;28;20211;-67
2023/03/02 13:49:08;;;;;;;35.77;14.43;;;;;;;;;;5047601;28;20193;-67
2023/03/02 13:51:46;;;;;;;26.57;14.03;;;;;;;;;;5057749;28;20201;-67
2023/03/02 13:54:21;;;;;;;25.67;13.30;;;;;;;;;;5052982;28;20275;-68
2023/03/02 13:56:47;;;;;;;21.57;12.13;;;;;;;;;;5055691;28;20191;-67
2023/03/02 13:59:16;;;;;;;20.23;11.97;;;;;;;;;;5055946;28;20280;-68
2023/03/02 14:01:45;;;;;;;23.35;12.65;;;;;;;;;;5058264;28;20232;-68
2023/03/02 14:04:20;;;;;;;27.27;12.80;;;;;;;;;;5045104;28;20226;-68
2023/03/02 14:06:45;;;;;;;18.43;10.90;;;;;;;;;;5055500;28;20188;-68
2023/03/02 14:09:11;;;;;;;18.70;9.87;;;;;;;;;;5058204;28;20196;-70
2023/03/02 14:11:40;;;;;;;18.80;10.77;;;;;;;;;;5049099;28;20205;-67
2023/03/02 14:14:06;;;;;;;18.10;11.63;;;;;;;;;;5054905;28;20185;-68
2023/03/02 14:16:34;;;;;;;22.00;12.70;;;;;;;;;;5056374;28;20228;-67
2023/03/02 14:19:00;;;;;;;22.00;12.20;;;;;;;;;;5049462;28;20194;-67